Terminal Aerodrome Forecast
Issued by NWS Twin Cities, MN

Home | Current Version | Previous Version | Text Only | Print | Product List | Glossary On
Versions: 1 2 3 4 5 6 7 8 9 10 11 12 13 14 15 16 17
000
FTUS43 KMPX 210520
TAFEAU
TAF
KEAU 210520Z 2106/2206 28015G23KT P6SM VCSH OVC020
     FM211500 29019G30KT P6SM VCSH OVC030
     FM212200 28015G25KT P6SM OVC040
     FM220300 31010KT P6SM OVC050=

USA.gov is the U.S. government's official web portal to all federal, state and local government web resources and services.